Flight Track Log - Related Links

Times and Time Zones

All times are in EDT time to prevent confusion due to time zone crossing. See the N51847 flight status page for this flight to view local times or setup timezone preferences in your user account.

Time Position Orientation Groundspeed Altitude Reporting Facility
EDT Latitude Longitude Course Direction KTS MPH feet Rate Location/Type
Sun 01:17:13 PM 45.6192 -122.6411 33° Northeast 97 112 500  Level Seattle Center
Sun 01:18:26 PM 45.6406 -122.6211 15° North 91 105 1,800 950 Climbing Seattle Center
Sun 01:19:32 PM 45.6689 -122.6103 North 96 110 2,700 767 Climbing Seattle Center
Sun 01:20:39 PM 45.6972 -122.6089 North 95 109 3,500 656 Climbing Seattle Center
Sun 01:21:40 PM 45.7256 -122.6075 28° Northeast 101 116 4,100 716 Climbing Seattle Center
Sun 01:22:28 PM 45.7478 -122.5903 57° Northeast 104 120 4,800 767 Climbing Seattle Center
Sun 01:23:06 PM 45.7578 -122.5681 80° East 111 128 5,200 667 Climbing Seattle Center
Sun 01:24:07 PM 45.7631 -122.5261 82° East 114 131 5,900 683 Climbing Seattle Center
Sun 01:25:09 PM 45.7669 -122.4839 73° East 112 129 6,600 634 Climbing Seattle Center
Sun 01:26:10 PM 45.7758 -122.4428 74° East 109 125 7,200 639 Climbing Seattle Center
Sun 01:27:11 PM 45.7847 -122.3986 78° East 114 131 7,900 639 Climbing Seattle Center
Sun 01:28:12 PM 45.7917 -122.3525 74° East 117 135 8,500 541 Climbing Seattle Center
Sun 01:29:13 PM 45.8011 -122.3058 71° East 120 138 9,000 246 Climbing Seattle Center
Sun 01:30:14 PM 45.8131 -122.2558 71° East 129 148 9,000 -49 Level Seattle Center
Sun 01:31:16 PM 45.8267 -122.1986 76° East 149 171 8,900  Descending Seattle Center
Sun 01:32:17 PM 45.8386 -122.1275 72° East 152 175 9,000  Climbing Seattle Center
Sun 01:33:18 PM 45.8514 -122.0722 77° East 149 171 8,900 -49 Descending Seattle Center
Sun 01:34:19 PM 45.8608 -122.0139 82° East 150 173 8,900 49 Level Seattle Center
Sun 01:35:20 PM 45.8669 -121.9547 79° East 150 173 9,000  Climbing Seattle Center
Sun 01:36:21 PM 45.8756 -121.8931 72° East 149 171 8,900 -49 Descending Seattle Center
Sun 01:37:22 PM 45.8881 -121.8375 76° East 148 170 8,900  Level Seattle Center
Sun 01:38:24 PM 45.8983 -121.7800 79° East 149 171 8,900  Level Seattle Center
Sun 01:39:25 PM 45.9058 -121.7222 78° East 147 169 8,900  Level Seattle Center
Sun 01:40:26 PM 45.9142 -121.6642 78° East 149 171 8,900  Level Seattle Center
Sun 01:41:27 PM 45.9231 -121.6061 69° East 150 173 8,900  Level Seattle Center
Sun 01:42:28 PM 45.9378 -121.5514 82° East 149 171 8,900  Level Seattle Center
Sun 01:43:29 PM 45.9436 -121.4925 73° East 148 170 8,900  Level Seattle Center
Sun 01:44:30 PM 45.9583 -121.4250 75° East 148 170 8,900  Level Seattle Center
Sun 01:45:31 PM 45.9689 -121.3686 55° Northeast 148 170 8,900  Level Seattle Center
Sun 01:46:33 PM 45.9911 -121.3231 44° Northeast 141 162 8,900  Level Seattle Center
Sun 01:47:34 PM 46.0214 -121.2808 44° Northeast 152 175 8,900  Level Seattle Center
Sun 01:48:35 PM 46.0503 -121.2400 48° Northeast 148 170 8,900  Level Seattle Center
Sun 01:49:36 PM 46.0767 -121.1975 44° Northeast 145 167 8,900  Level Seattle Center
Sun 01:50:37 PM 46.1067 -121.1564 47° Northeast 147 169 8,900  Level Seattle Center
Sun 01:51:38 PM 46.1333 -121.1147 43° Northeast 145 167 8,900  Level Seattle Center
Sun 01:52:39 PM 46.1614 -121.0769 29° Northeast 143 165 8,900  Level Seattle Center
Sun 01:53:40 PM 46.2025 -121.0436 22° Northeast 140 161 8,900 -49 Level Seattle Center
Sun 01:54:41 PM 46.2417 -121.0208 25° Northeast 150 173 8,800  Descending Seattle Center
Sun 01:55:43 PM 46.2806 -120.9950 26° Northeast 152 175 8,900 49 Climbing Seattle Center
Sun 01:56:44 PM 46.3175 -120.9692 22° Northeast 149 171 8,900  Level Seattle Center
Sun 01:57:45 PM 46.3550 -120.9475 25° Northeast 146 168 8,900  Level Seattle Center
Sun 01:58:46 PM 46.3914 -120.9231 27° Northeast 145 167 8,900  Level Seattle Center
Sun 01:59:47 PM 46.4281 -120.8964 25° Northeast 148 170 8,900  Level Seattle Center
Sun 02:00:48 PM 46.4650 -120.8708 25° Northeast 149 171 8,900  Level Seattle Center
Sun 02:01:49 PM 46.5000 -120.8475 23° Northeast 147 169 8,900 49 Level Seattle Center
Sun 02:02:50 PM 46.5461 -120.8192 41° Northeast 147 169 9,000  Climbing Seattle Center
Sun 02:03:51 PM 46.5758 -120.7811 38° Northeast 147 169 8,900 -49 Descending Seattle Center
Sun 02:04:52 PM 46.6100 -120.7417 24° Northeast 149 171 8,900  Level Seattle Center
Sun 02:05:54 PM 46.6458 -120.7189 28° Northeast 142 163 8,900  Level Seattle Center
Sun 02:06:55 PM 46.6806 -120.6925 22° Northeast 142 163 8,900 49 Level Seattle Center
Sun 02:07:56 PM 46.7178 -120.6706 28° Northeast 143 165 9,000  Climbing Seattle Center
Sun 02:08:57 PM 46.7561 -120.6406 33° Northeast 146 168 8,900 -49 Descending Seattle Center
Sun 02:09:58 PM 46.7894 -120.6094 15° North 143 165 8,900 49 Level Seattle Center
Sun 02:11:00 PM 46.8261 -120.5953 19° North 136 157 9,000  Climbing Seattle Center
Sun 02:12:01 PM 46.8636 -120.5761 23° Northeast 147 169 8,900 -49 Descending Seattle Center
Sun 02:13:02 PM 46.9028 -120.5522 27° Northeast 143 165 8,900 49 Level Seattle Center
Sun 02:14:03 PM 46.9372 -120.5261 49° Northeast 140 161 9,000  Climbing Seattle Center
Sun 02:15:05 PM 46.9639 -120.4814 59° Northeast 149 171 8,900 -49 Descending Seattle Center
Sun 02:16:06 PM 46.9836 -120.4339 66° East 149 171 8,900  Level Seattle Center
Sun 02:17:08 PM 46.9992 -120.3833 66° East 148 170 8,900  Level Seattle Center

Login

Don't have an account? Register now (free) for customized features, flight alerts, and more!